»·PEaware :: N6325J KSNA-KSNA

N6325J :: KSNA-KSNA

FLIGHT INFORMATION

Flight Status: Arrived
Operator: Privately registered:
United States
More flights under this callsign
Pilot: Anonymous 27082 (27082)
Aircraft: CESSNA 172 SKYHAWK
(C172)
More flights by this aircraft type
Origin: KSNA John Wayne-Orange Co
United States
Destination: KSNA John Wayne-Orange Co
United States
More flights between these airports :: More routes between these airports
Route: +SLI
File this flight plan on PilotEdge
Remarks: I-1 rating
Altitude:
(Current/Filed)
3,500ft
Speed:
(Current/Filed)
110kts
Departed: 02-Dec-19 06:40 PM
Arrived: 02-Dec-19 07:08 PM
Distance/Time
Traveled:
0nm/0:28
Distance/Time
To Go:
Arrived

Flight Plot

Page will automatically refresh every two minutes.


Map Options




Map Legend


Flown Route
Filed Route
Departure Airport
Arrival Airport
Navaid (VOR, NDB)
Fix

Horizontal Profiles

Position Reports

Time Latitude Longitude Heading Altitude Ground
Speed
02-Dec-19 18:14 33.675801 -117.873121 209 59ft 0kts
02-Dec-19 18:15 33.675801 -117.873121 209 59ft 0kts
02-Dec-19 18:16 33.675801 -117.873121 209 59ft 0kts
02-Dec-19 18:18 33.675801 -117.873121 209 59ft 0kts
02-Dec-19 18:19 33.675801 -117.873121 209 59ft 0kts
02-Dec-19 18:20 33.675801 -117.873121 209 59ft 0kts
02-Dec-19 18:21 33.675801 -117.873121 209 59ft 0kts
02-Dec-19 18:22 33.675801 -117.873121 209 59ft 0kts
02-Dec-19 18:23 33.675801 -117.873121 209 59ft 0kts
02-Dec-19 18:24 33.675801 -117.873121 209 59ft 0kts
02-Dec-19 18:25 33.675801 -117.873121 209 59ft 0kts
02-Dec-19 18:26 33.675801 -117.873121 209 59ft 0kts
02-Dec-19 18:27 33.675801 -117.873121 209 59ft 0kts
02-Dec-19 18:28 33.675801 -117.873121 209 59ft 0kts
02-Dec-19 18:29 33.675801 -117.873121 209 59ft 0kts
02-Dec-19 18:30 33.675801 -117.873121 209 59ft 0kts
02-Dec-19 18:31 33.675801 -117.873121 209 59ft 0kts
02-Dec-19 18:32 33.675801 -117.873121 209 59ft 0kts
02-Dec-19 18:33 33.675801 -117.873121 209 59ft 0kts
02-Dec-19 18:34 33.675801 -117.873121 209 59ft 0kts
02-Dec-19 18:35 33.675801 -117.873121 209 59ft 0kts
02-Dec-19 18:36 33.676124 -117.871371 53 59ft 23kts
02-Dec-19 18:36 33.680994 -117.866887 122 59ft 3kts
02-Dec-19 18:38 33.680891 -117.866602 111 59ft 0kts
02-Dec-19 18:39 33.680891 -117.866602 111 59ft 0kts
02-Dec-19 18:39 33.673913 -117.869701 203 146ft 80kts
02-Dec-19 18:40 33.652577 -117.880505 218 1013ft 83kts
02-Dec-19 18:42 33.642730 -117.909688 249 1998ft 82kts
02-Dec-19 18:43 33.640369 -117.937053 274 2753ft 82kts
02-Dec-19 18:43 33.641605 -117.961656 272 3287ft 91kts
02-Dec-19 18:44 33.644437 -117.991357 306 3907ft 90kts
02-Dec-19 18:45 33.661029 -118.012523 326 4546ft 83kts
02-Dec-19 18:46 33.684780 -118.003808 33 3965ft 103kts
02-Dec-19 18:47 33.707207 -117.983989 33 4003ft 101kts
02-Dec-19 18:48 33.729673 -117.962521 36 4056ft 106kts
02-Dec-19 18:49 33.753769 -117.940450 33 3665ft 115kts
02-Dec-19 18:51 33.785645 -117.914409 36 3005ft 116kts
02-Dec-19 18:51 33.806840 -117.897857 34 2986ft 108kts
02-Dec-19 18:52 33.831496 -117.877300 33 2942ft 108kts
02-Dec-19 18:53 33.856366 -117.858150 34 2957ft 106kts
02-Dec-19 18:54 33.872042 -117.828870 61 2941ft 108kts
02-Dec-19 18:55 33.885502 -117.797098 65 3050ft 107kts
02-Dec-19 18:56 33.898293 -117.764386 63 3084ft 109kts
02-Dec-19 18:57 33.895049 -117.734158 171 3004ft 114kts
02-Dec-19 18:58 33.866829 -117.747590 204 2939ft 105kts
02-Dec-19 18:59 33.840762 -117.761150 198 3024ft 100kts
02-Dec-19 19:00 33.814172 -117.775698 204 2887ft 109kts
02-Dec-19 19:01 33.790545 -117.797358 220 2470ft 104kts
02-Dec-19 19:02 33.764801 -117.811723 209 1869ft 92kts
02-Dec-19 19:03 33.741901 -117.825865 205 1350ft 92kts
02-Dec-19 19:04 33.719775 -117.840972 207 965ft 92kts
02-Dec-19 19:05 33.697189 -117.855066 207 439ft 89kts
02-Dec-19 19:06 33.677279 -117.867770 206 60ft 57kts
02-Dec-19 19:07 33.674215 -117.871099 290 59ft 0kts
02-Dec-19 19:08 33.674189 -117.872446 203 59ft 4kts

Navigation Log

Ident Type
Flight plan parsing failed, navigation log unavailable